Brisbane, CA (94005)

11:21 AM PDT on September 18, 2014 (GMT -0700)
Brisbane - The Ridge | Change Station
CLOSE
Current Station
Personal Weather Station
Location: Brisbane, CA
Elevation: 233 ft
Nearby Weather Stations

Elev 233 ft 37.69 °N, 122.41 °W | Updated 6 seconds ago

Overcast
Overcast
70.0 °F
Feels Like 70.0 °F
N
1.3
Wind Variable Wind from SE
Gusts 2.5 mph

Today
High -- | Low -- °F
--% Chance of Precip.
Yesterday
High -- | Low -- °F
Precip. -- in
6:54 AM 7:12 PM
Waning Crescent, 25% visible
Pressure 29.87 in
Visibility 10.0 miles
Clouds Few 900 ft
Scattered Clouds 3000 ft
Overcast 5000 ft
Dew Point 65 °F
Humidity 84%
Rainfall 0.01 in
Snow Depth 1 in , 0 in , 0 in
UV 2 out of 12
Pollen 5.10 out of 12
Ozone Good
PM2.5 Good
Flu Activity Not available.
METAR KSFO 181756Z 19009KT 10SM FEW009 SCT030 OVC050 23/18 A2987 RMK AO2 SLP115 60001 T02280178 10233 20206 51012

More Conditions Fewer Conditions

Pressure 29.87 in
Visibility 10.0 miles
Clouds Few 900 ft
Scattered Clouds 3000 ft
Overcast 5000 ft
Dew Point 65 °F
Humidity 84%
Rainfall 0.01 in
Snow Depth 1 in , 0 in , 0 in
UV 2 out of 12
Pollen 5.10 out of 12
Ozone Good
PM2.5 Good
Flu Activity Not available.
METAR KSFO 181756Z 19009KT 10SM FEW009 SCT030 OVC050 23/18 A2987 RMK AO2 SLP115 60001 T02280178 10233 20206 51012

More Conditions Fewer Conditions

10-Day Weather Forecast

Almanac

Astronomy

Sep. 18, 2014 Rise Set
Actual Time 6:54 AM PDT 7:12 PM PDT
Civil Twilight 6:27 AM PDT 7:38 PM PDT
Nautical Twilight 5:57 AM PDT 8:09 PM PDT
Astronomical Twilight 5:25 AM PDT 8:40 PM PDT
Moon 1:55 AM PDT 4:03 PM PDT
Length of Visible Light 13h 10m
Length of Day
12h 18m
Tomorrow will be 2m 24s shorter.
Waning Crescent, 25% of the Moon is Illuminated
Today
Waning Crescent
Sep 24
New
Oct 1
First Quarter
Oct 8
Full
Oct 15
Last Quarter

Today's Extremes

State Highs State Lows

Community

WunderPhotos

Upload Photos

1,754,414 photos uploaded!

Nearby

Air Quality

  Air Quality AQ Index Pollutant
Yesterday Good
OZONE
Yesterday Good
PM2.5
Current Good
PM2.5
Current Good
OZONE
Thursday Good
OZONE
Friday Good
PM2.5
Saturday Moderate
PM2.5
Sunday Moderate
PM2.5
Monday Moderate
PM2.5

Snow Depth

Station Depth Elevation
Summit Meadow 1 in 9122 ft
Sonora Pass 0 in 8800 ft
Rubicon #2 0 in 7500 ft
Echo Peak 0 in 7800 ft
Heavenly Valley 0 in 8850 ft

Earthquake Activity

City Distance Mag. Time & Date
The Geysers, California 75 miles 2.5 11:29 PM PDT
2014-09-17
Cobb, California 78 miles 2.7 1:23 PM PDT
2014-09-16
Minimum magnitude displayed is 2.5.

Coastal Water Temperatures

Place Temperature
No Stations Reporting

Nearby Weather Stations